Time;durP1;ratioP1;P1;durP2;ratioP2;P2;SDS_P1;SDS_P2;PMS_P1;PMS_P2;Temp;Humidity;BMP_temperature;BMP_pressure;BME280_temperature;BME280_humidity;BME280_pressure;Samples;Min_cycle;Max_cycle;Signal;HPM_P1;HPM_P2
2021/09/24 00:01:01;;;;;;;10.93;1.40;;;;;;;13.82;79.21;100556.75;5035072;28;20451;-66
2021/09/24 00:03:28;;;;;;;5.43;1.53;;;;;;;13.78;79.32;100553.06;5035683;28;20834;-67
2021/09/24 00:05:56;;;;;;;13.17;1.47;;;;;;;13.68;80.16;100553.41;5035740;28;20443;-66
2021/09/24 00:08:22;;;;;;;9.60;1.57;;;;;;;13.69;80.84;100533.25;5035662;28;20447;-67
2021/09/24 00:10:49;;;;;;;8.50;1.33;;;;;;;13.69;81.57;100546.06;5035512;28;20487;-66
2021/09/24 00:13:15;;;;;;;9.70;1.83;;;;;;;13.70;81.57;100551.16;5035273;28;20443;-66
2021/09/24 00:15:42;;;;;;;16.13;1.83;;;;;;;13.59;82.41;100558.03;5035632;28;20443;-67
2021/09/24 00:18:08;;;;;;;12.73;1.40;;;;;;;13.61;82.43;100556.63;5035567;28;20454;-65
2021/09/24 00:20:35;;;;;;;15.33;2.20;;;;;;;13.58;82.53;100553.72;5035366;28;20463;-67
2021/09/24 00:23:03;;;;;;;18.17;2.73;;;;;;;13.56;82.87;100559.50;5035392;28;20482;-66
2021/09/24 00:25:30;;;;;;;3.23;1.37;;;;;;;13.57;82.93;100557.59;5035416;28;20518;-67
2021/09/24 00:27:58;;;;;;;14.50;1.80;;;;;;;13.54;82.91;100564.47;5035372;28;20814;-66
2021/09/24 00:30:24;;;;;;;1.30;0.73;;;;;;;13.52;83.31;100566.72;5035083;28;20498;-66
2021/09/24 00:32:51;;;;;;;6.73;1.23;;;;;;;13.49;83.16;100561.91;5034893;28;20574;-66
2021/09/24 00:35:17;;;;;;;5.63;1.47;;;;;;;13.45;83.60;100550.06;5035218;28;20443;-67
2021/09/24 00:37:44;;;;;;;11.87;1.70;;;;;;;13.40;83.21;100558.38;5035344;28;20443;-67
2021/09/24 00:40:12;;;;;;;6.03;2.53;;;;;;;13.43;83.26;100567.84;5034781;28;20839;-66
2021/09/24 00:42:39;;;;;;;7.60;1.20;;;;;;;13.44;82.66;100561.28;5035069;28;20458;-66
2021/09/24 00:45:06;;;;;;;3.30;1.10;;;;;;;13.47;83.44;100566.09;5034964;28;20496;-67
2021/09/24 00:47:33;;;;;;;8.63;1.17;;;;;;;13.42;82.90;100560.81;5034932;28;20443;-66
2021/09/24 00:49:59;;;;;;;5.97;1.17;;;;;;;13.44;82.93;100564.00;5034558;28;20499;-67
2021/09/24 00:52:27;;;;;;;7.33;3.00;;;;;;;13.44;82.81;100561.28;5034900;28;20427;-66
2021/09/24 00:54:55;;;;;;;3.90;1.00;;;;;;;13.42;83.16;100550.72;5034537;28;20439;-67
2021/09/24 00:57:23;;;;;;;6.20;2.30;;;;;;;13.40;83.34;100558.38;5034732;28;20450;-66
2021/09/24 00:59:50;;;;;;;10.20;1.37;;;;;;;13.34;83.49;100548.78;5034697;28;20467;-66
2021/09/24 01:02:17;;;;;;;5.43;1.20;;;;;;;13.35;83.27;100559.34;5034581;28;20447;-67
2021/09/24 01:04:43;;;;;;;7.93;0.80;;;;;;;13.32;83.51;100553.75;5034757;28;20447;-67
2021/09/24 01:07:12;;;;;;;4.63;1.80;;;;;;;13.30;83.99;100554.06;5034567;28;20436;-66
2021/09/24 01:09:39;;;;;;;24.40;1.60;;;;;;;13.32;83.55;100554.53;5034449;28;20450;-66
2021/09/24 01:12:07;;;;;;;20.83;1.93;;;;;;;13.19;84.16;100554.66;5033495;28;20916;-67
2021/09/24 01:14:35;;;;;;;5.40;1.97;;;;;;;13.11;85.01;100546.19;5034066;28;20447;-66
2021/09/24 01:17:02;;;;;;;4.73;1.00;;;;;;;13.14;84.44;100553.69;5034120;28;20435;-66
2021/09/24 01:19:29;;;;;;;1.20;0.80;;;;;;;13.14;84.72;100555.63;5034270;28;20446;-66
2021/09/24 01:21:56;;;;;;;6.53;1.33;;;;;;;13.08;85.00;100548.75;5034352;28;20826;-66
2021/09/24 01:24:23;;;;;;;5.27;1.20;;;;;;;13.05;85.09;100563.78;5034034;28;20447;-66
2021/09/24 01:26:52;;;;;;;5.87;1.23;;;;;;;13.07;85.25;100560.75;5033793;28;20833;-67
2021/09/24 01:29:20;;;;;;;4.93;1.77;;;;;;;13.08;85.14;100560.44;5034123;28;20447;-67
2021/09/24 01:31:46;;;;;;;7.33;1.27;;;;;;;13.03;85.89;100565.22;5033884;28;20482;-67
2021/09/24 01:34:13;;;;;;;4.73;1.00;;;;;;;13.04;85.52;100567.63;5034061;28;20451;-67
2021/09/24 01:36:39;;;;;;;16.87;1.50;;;;;;;13.03;85.69;100568.75;5033954;28;20443;-67
2021/09/24 01:39:11;;;;;;;8.43;1.20;;;;;;;12.98;86.03;100568.91;5033937;28;20447;-66
2021/09/24 01:41:39;;;;;;;5.60;0.93;;;;;;;13.01;86.23;100578.31;5033942;28;20521;-66
2021/09/24 01:44:05;;;;;;;6.93;1.40;;;;;;;13.02;85.93;100579.94;5033855;28;20483;-66
2021/09/24 01:46:32;;;;;;;1.10;0.77;;;;;;;12.99;86.17;100588.72;5034045;28;20450;-66
2021/09/24 01:48:58;;;;;;;4.87;0.87;;;;;;;13.01;87.01;100581.03;5033750;28;20446;-66
2021/09/24 01:51:24;;;;;;;9.97;1.40;;;;;;;13.06;86.52;100589.06;5033187;28;20495;-65
2021/09/24 01:53:51;;;;;;;9.57;3.30;;;;;;;13.08;86.45;100595.78;5033446;28;20953;-65
2021/09/24 01:56:22;;;;;;;1.23;0.80;;;;;;;13.13;86.53;100592.09;5033635;28;20454;-67
2021/09/24 01:58:48;;;;;;;4.87;0.93;;;;;;;13.15;86.75;100595.31;5033652;28;20428;-67
2021/09/24 02:01:15;;;;;;;6.20;1.17;;;;;;;13.13;86.98;100595.63;5033498;28;20466;-65
2021/09/24 02:03:41;;;;;;;2.93;1.70;;;;;;;13.15;86.57;100600.75;5033630;28;20435;-66
2021/09/24 02:06:07;;;;;;;29.37;1.83;;;;;;;13.20;86.36;100591.66;5033513;28;20472;-65
2021/09/24 02:08:34;;;;;;;5.10;0.77;;;;;;;13.06;86.61;100597.22;5033511;28;20454;-67
2021/09/24 02:11:00;;;;;;;2.63;0.63;;;;;;;13.05;87.20;100601.03;5033328;28;20553;-66
2021/09/24 02:13:28;;;;;;;7.07;1.10;;;;;;;13.03;87.39;100598.66;5033495;28;20793;-66
2021/09/24 02:15:55;;;;;;;6.90;1.37;;;;;;;13.04;87.55;100607.59;5033399;28;20439;-66
2021/09/24 02:18:21;;;;;;;4.03;1.10;;;;;;;13.01;87.61;100610.94;5033344;28;20435;-67
2021/09/24 02:20:48;;;;;;;8.07;1.37;;;;;;;12.92;88.43;100618.28;5033216;28;20487;-67
2021/09/24 02:23:14;;;;;;;4.27;2.03;;;;;;;12.96;88.31;100613.81;5033283;28;20446;-66
2021/09/24 02:25:41;;;;;;;1.20;0.57;;;;;;;12.99;88.25;100615.91;5033052;28;20443;-65
2021/09/24 02:28:07;;;;;;;5.63;1.63;;;;;;;13.00;88.34;100610.16;5033219;28;20443;-66
2021/09/24 02:30:35;;;;;;;7.37;1.47;;;;;;;13.01;88.45;100613.66;5033075;28;20904;-66
2021/09/24 02:33:01;;;;;;;2.20;0.97;;;;;;;12.96;88.83;100616.53;5032760;28;20443;-65
2021/09/24 02:35:28;;;;;;;6.00;1.20;;;;;;;13.02;88.43;100624.25;5033282;28;20435;-67
2021/09/24 02:37:54;;;;;;;14.23;1.50;;;;;;;13.05;88.30;100618.16;5033157;28;20454;-67
2021/09/24 02:40:21;;;;;;;13.37;1.00;;;;;;;13.10;88.33;100625.38;5033044;28;20471;-67
2021/09/24 02:42:47;;;;;;;11.43;1.90;;;;;;;13.06;88.83;100627.13;5033105;28;20809;-65
2021/09/24 02:45:14;;;;;;;7.70;1.20;;;;;;;13.08;89.01;100635.78;5033136;28;20450;-67
2021/09/24 02:47:42;;;;;;;15.50;2.57;;;;;;;13.10;88.73;100642.50;5033227;28;20442;-66
2021/09/24 02:50:10;;;;;;;9.13;1.10;;;;;;;13.15;88.54;100633.41;5032529;28;20992;-66
2021/09/24 02:52:36;;;;;;;14.73;1.43;;;;;;;13.17;88.51;100636.59;5032976;28;20479;-66
2021/09/24 02:55:04;;;;;;;3.23;1.10;;;;;;;13.18;88.28;100656.44;5033007;28;20439;-65
2021/09/24 02:57:30;;;;;;;4.13;1.87;;;;;;;13.20;88.30;100651.50;5032951;28;20446;-66
2021/09/24 02:59:57;;;;;;;6.23;0.70;;;;;;;13.26;87.89;100658.41;5032922;28;20470;-66
2021/09/24 03:02:23;;;;;;;14.03;1.13;;;;;;;13.28;87.88;100656.97;5032946;28;20439;-66
2021/09/24 03:04:51;;;;;;;6.63;3.00;;;;;;;13.29;87.97;100655.84;5032729;28;20501;-67
2021/09/24 03:07:17;;;;;;;6.83;0.83;;;;;;;13.32;87.85;100651.69;5032619;28;20940;-67
2021/09/24 03:09:44;;;;;;;5.07;1.27;;;;;;;13.30;88.15;100660.16;5032835;28;20466;-66
2021/09/24 03:12:10;;;;;;;6.83;1.17;;;;;;;13.32;87.86;100662.56;5032778;28;20493;-66
2021/09/24 03:14:37;;;;;;;3.40;1.03;;;;;;;13.27;88.54;100674.41;5032808;28;20447;-68
2021/09/24 03:17:04;;;;;;;23.90;1.50;;;;;;;13.33;88.08;100661.47;5033103;28;20450;-69
2021/09/24 03:19:30;;;;;;;1.33;0.57;;;;;;;13.37;88.25;100665.94;5032720;28;20454;-69
2021/09/24 03:21:58;;;;;;;0.90;0.50;;;;;;;13.33;88.25;100678.59;5032402;28;20497;-69
2021/09/24 03:24:24;;;;;;;11.93;1.53;;;;;;;13.33;88.40;100684.03;5032756;28;20443;-69
2021/09/24 03:26:51;;;;;;;8.50;2.03;;;;;;;13.35;88.16;100679.06;5032731;28;20458;-68
2021/09/24 03:29:17;;;;;;;5.40;0.87;;;;;;;13.38;88.07;100694.75;5032674;28;20443;-69
2021/09/24 03:31:44;;;;;;;3.90;1.03;;;;;;;13.34;88.37;100684.81;5032536;28;20846;-67
2021/09/24 03:34:10;;;;;;;67.23;2.50;;;;;;;13.38;88.19;100683.88;5032355;28;20967;-68
2021/09/24 03:36:38;;;;;;;4.60;0.80;;;;;;;13.40;88.29;100693.63;5034287;28;20446;-68
2021/09/24 03:39:11;;;;;;;3.17;1.13;;;;;;;13.36;88.13;100688.00;5036110;28;20443;-68
2021/09/24 03:41:38;;;;;;;18.20;1.97;;;;;;;13.34;88.48;100691.06;5036153;28;20499;-68
2021/09/24 03:44:05;;;;;;;19.37;1.03;;;;;;;13.36;88.43;100685.28;5036111;28;20466;-67
2021/09/24 03:46:31;;;;;;;1.23;1.03;;;;;;;13.40;88.26;100682.75;5035961;28;20439;-68
2021/09/24 03:48:58;;;;;;;2.47;0.97;;;;;;;13.38;88.03;100675.72;5035970;28;20803;-68
2021/09/24 03:51:24;;;;;;;5.30;1.27;;;;;;;13.44;88.23;100689.16;5036901;28;20496;-68
2021/09/24 03:53:51;;;;;;;9.30;1.13;;;;;;;13.44;87.81;100675.56;5035892;28;20447;-68
2021/09/24 03:56:19;;;;;;;3.37;0.80;;;;;;;13.34;87.97;100687.53;5035922;28;20446;-69
2021/09/24 03:58:45;;;;;;;6.80;1.30;;;;;;;13.30;88.46;100673.78;5035891;28;20453;-68
2021/09/24 04:01:11;;;;;;;2.40;0.70;;;;;;;13.28;88.43;100678.75;5035499;28;20470;-67
2021/09/24 04:03:38;;;;;;;11.07;1.37;;;;;;;13.32;88.63;100693.28;5035799;28;20442;-68
2021/09/24 04:06:04;;;;;;;6.20;0.67;;;;;;;13.34;88.71;100688.34;5035409;28;20821;-69
2021/09/24 04:08:31;;;;;;;3.97;1.23;;;;;;;13.34;88.70;100688.34;5035501;28;20451;-68
2021/09/24 04:10:57;;;;;;;6.73;0.80;;;;;;;13.34;89.03;100691.06;5035404;28;20538;-68
2021/09/24 04:13:25;;;;;;;3.03;0.97;;;;;;;13.33;88.96;100694.91;5035281;28;20947;-67
2021/09/24 04:15:51;;;;;;;8.90;1.90;;;;;;;13.22;89.71;100692.75;5035540;28;20446;-69
2021/09/24 04:18:18;;;;;;;3.63;2.07;;;;;;;13.16;89.71;100689.38;5035511;28;20431;-69
2021/09/24 04:20:46;;;;;;;2.00;1.20;;;;;;;13.24;89.65;100702.25;5035166;28;20880;-69
2021/09/24 04:23:13;;;;;;;9.57;1.43;;;;;;;13.27;89.22;100707.03;5035133;28;21000;-67
2021/09/24 04:25:39;;;;;;;7.20;1.33;;;;;;;13.20;89.67;100697.72;5035078;28;20828;-68
2021/09/24 04:28:06;;;;;;;8.23;1.93;;;;;;;13.19;89.66;100701.53;5035310;28;20439;-67
2021/09/24 04:30:34;;;;;;;2.10;1.30;;;;;;;13.22;89.72;100704.47;5035190;28;20464;-68
2021/09/24 04:33:00;;;;;;;6.90;1.30;;;;;;;13.26;89.52;100708.16;5035100;28;20479;-68
2021/09/24 04:35:27;;;;;;;17.37;1.87;;;;;;;13.21;89.89;100713.72;5035221;28;20451;-67
2021/09/24 04:37:53;;;;;;;7.10;0.90;;;;;;;13.27;89.20;100712.47;5035132;28;20449;-67
2021/09/24 04:40:21;;;;;;;4.70;1.13;;;;;;;13.25;89.41;100709.28;5034979;28;20473;-67
2021/09/24 04:42:47;;;;;;;15.93;1.33;;;;;;;13.28;89.39;100716.00;5035028;28;20444;-64
2021/09/24 04:45:14;;;;;;;2.40;1.03;;;;;;;13.27;89.53;100717.13;5034989;28;20446;-67
2021/09/24 04:47:42;;;;;;;5.33;0.80;;;;;;;13.24;90.06;100715.84;5034803;28;20443;-68
2021/09/24 04:50:09;;;;;;;9.13;1.27;;;;;;;13.26;90.56;100718.25;5034640;28;20471;-67
2021/09/24 04:52:37;;;;;;;7.10;1.60;;;;;;;13.17;90.09;100707.31;5034780;28;20463;-68
2021/09/24 04:55:04;;;;;;;5.00;0.90;;;;;;;13.13;90.07;100712.56;5034746;28;20486;-68
2021/09/24 04:57:30;;;;;;;4.00;1.00;;;;;;;13.22;89.94;100715.34;5034573;28;20935;-69
2021/09/24 04:59:56;;;;;;;8.03;1.20;;;;;;;13.22;89.90;100720.78;5034519;28;20459;-69
2021/09/24 05:02:23;;;;;;;11.00;1.80;;;;;;;13.22;90.08;100725.41;5034677;28;20439;-69
2021/09/24 05:04:52;;;;;;;15.00;2.50;;;;;;;13.25;89.96;100714.72;5034651;28;20460;-69
2021/09/24 05:07:18;;;;;;;11.47;1.50;;;;;;;13.25;89.72;100724.81;5034564;28;20502;-69
2021/09/24 05:09:44;;;;;;;13.10;1.77;;;;;;;13.27;89.64;100722.56;5034456;28;20463;-68
2021/09/24 05:12:11;;;;;;;8.53;0.90;;;;;;;13.24;89.91;100721.28;5034039;28;21007;-68
2021/09/24 05:14:38;;;;;;;2.70;0.57;;;;;;;13.26;89.94;100726.41;5034415;28;20525;-68
2021/09/24 05:17:04;;;;;;;7.10;1.50;;;;;;;13.31;89.82;100728.97;5034043;28;20937;-68
2021/09/24 05:19:31;;;;;;;5.63;1.83;;;;;;;13.28;89.59;100729.59;5033995;28;20818;-69
2021/09/24 05:21:58;;;;;;;9.80;1.23;;;;;;;13.25;89.62;100719.38;5034320;28;20522;-68
2021/09/24 05:24:25;;;;;;;7.43;1.20;;;;;;;13.20;89.69;100733.88;5034240;28;20450;-68
2021/09/24 05:26:52;;;;;;;6.63;1.70;;;;;;;13.20;89.34;100733.88;5034177;28;20439;-69
2021/09/24 05:29:18;;;;;;;11.63;1.10;;;;;;;13.26;89.77;100737.28;5033813;28;20442;-68
2021/09/24 05:31:46;;;;;;;4.90;1.10;;;;;;;13.25;89.54;100741.94;5034005;28;20544;-69
2021/09/24 05:34:12;;;;;;;9.70;2.30;;;;;;;13.28;89.34;100740.47;5034219;28;20815;-68
2021/09/24 05:36:39;;;;;;;7.40;2.13;;;;;;;13.32;88.99;100734.09;5033969;28;20458;-68
2021/09/24 05:39:07;;;;;;;16.70;1.23;;;;;;;13.31;89.24;100745.31;5033977;28;20486;-69
2021/09/24 05:41:33;;;;;;;9.70;1.57;;;;;;;13.34;88.84;100734.59;5033786;28;20463;-68
2021/09/24 05:44:00;;;;;;;5.40;1.43;;;;;;;13.37;89.07;100741.34;5033527;28;20438;-68
2021/09/24 05:46:26;;;;;;;5.17;1.63;;;;;;;13.37;89.43;100750.28;5033855;28;20435;-68
2021/09/24 05:48:53;;;;;;;5.23;0.80;;;;;;;13.29;89.37;100756.50;5033845;28;20521;-69
2021/09/24 05:51:19;;;;;;;4.47;1.13;;;;;;;13.31;90.08;100756.97;5033276;28;20486;-69
2021/09/24 05:53:46;;;;;;;7.33;1.17;;;;;;;13.34;89.83;100755.56;5033796;28;20447;-67
2021/09/24 05:56:13;;;;;;;6.73;1.03;;;;;;;13.37;89.31;100754.94;5033729;28;20438;-68
2021/09/24 05:58:40;;;;;;;5.43;0.87;;;;;;;13.37;89.22;100757.66;5032838;28;20447;-69
2021/09/24 06:01:07;;;;;;;8.70;1.50;;;;;;;13.33;89.56;100764.84;5033444;28;20486;-69
2021/09/24 06:03:34;;;;;;;2.80;1.33;;;;;;;13.37;89.44;100774.78;5033536;28;20439;-69
2021/09/24 06:06:01;;;;;;;6.40;1.83;;;;;;;13.31;89.49;100776.03;5033542;28;20446;-67
2021/09/24 06:08:28;;;;;;;2.27;0.93;;;;;;;13.26;90.05;100770.72;5033540;28;20454;-68
2021/09/24 06:10:55;;;;;;;7.40;1.53;;;;;;;13.15;91.01;100769.38;5033404;28;20478;-69
2021/09/24 06:13:23;;;;;;;3.67;2.20;;;;;;;13.18;90.79;100773.38;5033244;28;20487;-69
2021/09/24 06:15:49;;;;;;;8.07;1.30;;;;;;;13.20;90.69;100768.44;5033283;28;20447;-70
2021/09/24 06:18:16;;;;;;;7.70;1.07;;;;;;;13.13;90.81;100771.59;5033489;28;20454;-67
2021/09/24 06:20:42;;;;;;;2.60;1.20;;;;;;;13.21;90.73;100776.28;5033246;28;20463;-71
2021/09/24 06:23:09;;;;;;;6.10;0.97;;;;;;;13.17;90.64;100783.47;5033459;28;20443;-71
2021/09/24 06:25:35;;;;;;;4.83;1.27;;;;;;;13.10;91.60;100789.38;5033270;28;20439;-69
2021/09/24 06:28:02;;;;;;;17.50;2.20;;;;;;;13.12;91.29;100784.41;5033255;28;20455;-69
2021/09/24 06:30:30;;;;;;;12.40;1.20;;;;;;;13.13;91.15;100791.44;5033198;28;20462;-69
2021/09/24 06:32:56;;;;;;;14.63;1.10;;;;;;;13.12;91.23;100787.13;5033116;28;20486;-68
2021/09/24 06:35:23;;;;;;;8.40;1.97;;;;;;;13.06;93.01;100793.03;5032904;28;20458;-70
2021/09/24 06:37:49;;;;;;;11.40;1.20;;;;;;;13.05;91.95;100794.91;5033153;28;20833;-68
2021/09/24 06:40:16;;;;;;;5.07;0.90;;;;;;;13.11;92.00;100801.84;5033078;28;20459;-67
2021/09/24 06:42:42;;;;;;;9.80;1.27;;;;;;;13.15;92.01;100799.31;5033130;28;20478;-68
2021/09/24 06:45:12;;;;;;;10.87;1.47;;;;;;;13.16;92.23;100800.09;5032957;28;20447;-67
2021/09/24 06:47:41;;;;;;;0.70;0.57;;;;;;;13.21;92.01;100795.31;5032921;28;20463;-68
2021/09/24 06:50:09;;;;;;;4.03;0.97;;;;;;;13.22;92.34;100821.44;5032660;28;20505;-68
2021/09/24 06:52:35;;;;;;;8.80;1.43;;;;;;;13.23;91.88;100805.91;5032607;28;20482;-68
2021/09/24 06:55:02;;;;;;;5.30;0.90;;;;;;;13.25;92.21;100809.94;5033002;28;20446;-68
2021/09/24 06:57:28;;;;;;;23.83;1.73;;;;;;;13.28;92.14;100808.50;5032815;28;20814;-68
2021/09/24 06:59:55;;;;;;;13.20;1.77;;;;;;;13.27;92.34;100815.06;5032638;28;20869;-69
2021/09/24 07:02:21;;;;;;;5.93;0.90;;;;;;;13.29;92.55;100819.06;5032898;28;20435;-70
2021/09/24 07:04:49;;;;;;;1.33;0.70;;;;;;;13.34;92.55;100816.22;5033053;28;20446;-69
2021/09/24 07:07:16;;;;;;;5.43;1.27;;;;;;;13.43;92.20;100813.53;5032684;28;20940;-69
2021/09/24 07:09:45;;;;;;;8.77;1.20;;;;;;;13.45;91.82;100821.38;5032609;28;20443;-69
2021/09/24 07:12:12;;;;;;;2.43;1.40;;;;;;;13.41;92.67;100815.75;5035470;28;20573;-68
2021/09/24 07:14:39;;;;;;;12.23;2.20;;;;;;;13.52;92.87;100821.72;5036714;28;20474;-69
2021/09/24 07:17:05;;;;;;;26.60;1.37;;;;;;;13.59;90.87;100816.63;5036324;28;20534;-68
2021/09/24 07:19:32;;;;;;;3.37;1.17;;;;;;;13.58;91.32;100823.97;5036053;28;20454;-68
2021/09/24 07:22:00;;;;;;;4.83;1.30;;;;;;;13.66;91.17;100825.13;5036252;28;20453;-68
2021/09/24 07:24:27;;;;;;;15.33;1.80;;;;;;;13.74;91.11;100824.34;5036317;28;20439;-68
2021/09/24 07:26:54;;;;;;;13.03;1.60;;;;;;;13.82;90.89;100828.22;5036142;28;20453;-68
2021/09/24 07:29:21;;;;;;;7.60;1.63;;;;;;;13.84;90.56;100829.50;5036351;28;20451;-68
2021/09/24 07:31:47;;;;;;;3.73;1.40;;;;;;;13.96;90.04;100830.81;5035878;28;20566;-68
2021/09/24 07:34:14;;;;;;;3.93;1.03;;;;;;;14.03;89.09;100825.69;5036301;28;20438;-68
2021/09/24 07:36:40;;;;;;;5.30;1.53;;;;;;;14.05;89.57;100823.47;5036294;28;20447;-68
2021/09/24 07:39:08;;;;;;;10.33;1.00;;;;;;;14.07;89.52;100822.00;5036313;28;20442;-68
2021/09/24 07:41:35;;;;;;;8.13;1.17;;;;;;;14.19;89.63;100829.56;5036078;28;20565;-68
2021/09/24 07:44:03;;;;;;;9.33;1.43;;;;;;;14.25;89.32;100822.03;5036121;28;20536;-68
2021/09/24 07:46:31;;;;;;;13.10;1.67;;;;;;;14.37;88.44;100830.38;5036149;28;20545;-67
2021/09/24 07:48:58;;;;;;;8.47;2.03;;;;;;;14.38;87.63;100827.31;5036130;28;20443;-70
2021/09/24 07:51:25;;;;;;;6.90;1.30;;;;;;;14.44;88.27;100825.25;5035615;28;20566;-67
2021/09/24 07:53:51;;;;;;;7.03;1.40;;;;;;;14.52;87.35;100826.38;5035478;28;21015;-69
2021/09/24 07:56:19;;;;;;;9.67;1.40;;;;;;;14.56;87.65;100825.41;5035895;28;20443;-68
2021/09/24 07:58:45;;;;;;;6.23;1.10;;;;;;;14.63;87.69;100827.69;5035883;28;20451;-69
2021/09/24 08:01:12;;;;;;;8.27;1.40;;;;;;;14.68;86.93;100829.44;5035770;28;20475;-68
2021/09/24 08:03:39;;;;;;;16.50;1.43;;;;;;;14.66;87.12;100832.50;5035742;28;20469;-68
2021/09/24 08:06:06;;;;;;;8.87;1.50;;;;;;;14.72;87.75;100828.47;5035670;28;20439;-69
2021/09/24 08:08:32;;;;;;;8.73;1.27;;;;;;;14.81;86.00;100828.47;5035796;28;20454;-69
2021/09/24 08:11:00;;;;;;;13.43;1.40;;;;;;;14.91;86.31;100830.03;5035612;28;20463;-69
2021/09/24 08:13:27;;;;;;;16.17;0.93;;;;;;;14.92;85.79;100823.44;5035499;28;20490;-69
2021/09/24 08:15:55;;;;;;;2.47;1.43;;;;;;;14.96;84.79;100829.88;5035558;28;20446;-69
2021/09/24 08:18:23;;;;;;;8.20;1.77;;;;;;;15.10;85.12;100833.22;5035233;28;20949;-69
2021/09/24 08:20:50;;;;;;;6.83;0.80;;;;;;;15.14;83.45;100823.25;5035343;28;20455;-69
2021/09/24 08:23:18;;;;;;;3.17;1.80;;;;;;;15.30;84.46;100824.31;5034579;28;20975;-68
2021/09/24 08:25:45;;;;;;;1.93;1.10;;;;;;;15.36;83.21;100828.47;5035365;28;20449;-68
2021/09/24 08:28:12;;;;;;;1.93;0.93;;;;;;;15.42;82.27;100826.34;5035278;28;20443;-69
2021/09/24 08:30:40;;;;;;;3.73;1.07;;;;;;;15.52;80.44;100833.38;5035343;28;20835;-68
2021/09/24 08:33:07;;;;;;;11.80;2.70;;;;;;;15.53;79.68;100833.03;5035250;28;20494;-68
2021/09/24 08:35:33;;;;;;;2.00;0.90;;;;;;;15.59;79.54;100828.22;5035229;28;20505;-68
2021/09/24 08:38:00;;;;;;;10.63;2.37;;;;;;;15.63;79.67;100835.41;5035193;28;20458;-68
2021/09/24 08:40:29;;;;;;;1.90;0.90;;;;;;;15.58;79.52;100841.06;5035168;28;20470;-68
2021/09/24 08:42:56;;;;;;;6.27;1.23;;;;;;;15.69;78.89;100841.53;5035043;28;20430;-69
2021/09/24 08:45:26;;;;;;;4.53;1.30;;;;;;;15.69;76.99;100838.00;5034987;28;20442;-69
2021/09/24 08:47:55;;;;;;;5.80;1.17;;;;;;;15.74;78.64;100843.25;5034632;28;20975;-68
2021/09/24 08:50:22;;;;;;;7.43;1.23;;;;;;;15.86;77.23;100843.38;5034375;28;21023;-68
2021/09/24 08:52:48;;;;;;;2.73;1.00;;;;;;;15.95;76.47;100848.78;5034421;28;20483;-68
2021/09/24 08:55:15;;;;;;;5.03;1.47;;;;;;;15.97;77.50;100843.78;5035360;28;20447;-68
2021/09/24 08:57:42;;;;;;;13.90;2.80;;;;;;;15.97;76.52;100835.56;5034823;28;20798;-69
2021/09/24 09:00:10;;;;;;;15.63;1.37;;;;;;;16.01;78.13;100848.25;5034591;28;20462;-68
2021/09/24 09:03:05;;;;;;;1.83;1.07;;;;;;;16.16;75.67;100849.63;5034512;28;20444;-68
2021/09/24 09:05:35;;;;;;;6.10;1.40;;;;;;;16.28;76.00;100849.66;5034668;28;20435;-69
2021/09/24 09:08:07;;;;;;;4.23;1.17;;;;;;;16.40;75.45;100857.94;5034304;28;20443;-67
2021/09/24 09:10:39;;;;;;;10.93;1.77;;;;;;;16.51;75.17;100860.28;5034403;28;20470;-69
2021/09/24 09:13:08;;;;;;;1.63;0.77;;;;;;;16.58;76.55;100863.28;5034422;28;20485;-68
2021/09/24 09:15:35;;;;;;;2.30;0.83;;;;;;;16.62;74.12;100883.34;5034120;28;20956;-67
2021/09/24 09:18:03;;;;;;;5.33;1.60;;;;;;;16.58;74.87;100866.00;5034305;28;20444;-67
2021/09/24 09:20:30;;;;;;;7.00;1.60;;;;;;;16.58;74.86;100876.94;5034380;28;20463;-68
2021/09/24 09:23:07;;;;;;;8.87;1.27;;;;;;;16.62;75.01;100880.63;5034253;28;20443;-68
2021/09/24 09:25:36;;;;;;;3.33;1.43;;;;;;;16.67;74.79;100874.16;5034090;28;20438;-67
2021/09/24 09:28:05;;;;;;;6.60;0.97;;;;;;;16.71;75.37;100880.56;5034157;28;20821;-68
2021/09/24 09:30:35;;;;;;;7.33;1.13;;;;;;;16.74;75.33;100864.31;5033848;28;21002;-67
2021/09/24 09:33:05;;;;;;;9.37;1.47;;;;;;;16.82;75.88;100881.75;5033668;28;20505;-68
2021/09/24 09:35:37;;;;;;;4.43;1.33;;;;;;;16.83;75.92;100873.22;5033716;28;20453;-69
2021/09/24 09:38:04;;;;;;;9.97;2.10;;;;;;;16.75;75.07;100879.56;5034162;28;20798;-69
2021/09/24 09:40:31;;;;;;;5.97;1.27;;;;;;;16.78;75.26;100880.84;5033876;28;20451;-68
2021/09/24 09:42:59;;;;;;;6.90;1.37;;;;;;;16.79;75.21;100885.97;5033905;28;20435;-68
2021/09/24 09:45:27;;;;;;;4.33;1.50;;;;;;;16.78;75.13;100876.19;5033912;28;20451;-68
2021/09/24 09:47:54;;;;;;;4.77;1.67;;;;;;;16.79;76.53;100883.25;5033857;28;20451;-68
2021/09/24 09:50:23;;;;;;;4.57;1.20;;;;;;;16.82;76.52;100888.06;5034903;28;20506;-68
2021/09/24 09:53:11;;;;;;;12.30;1.00;;;;;;;16.92;76.79;100889.56;5033673;28;20495;-68
2021/09/24 09:55:40;;;;;;;10.37;1.30;;;;;;;16.90;77.75;100883.63;5028906;28;20466;-68
2021/09/24 09:58:09;;;;;;;5.10;1.30;;;;;;;16.96;76.95;100892.44;5033249;28;20455;-68
2021/09/24 10:00:37;;;;;;;3.53;0.90;;;;;;;16.85;76.54;100886.56;5033517;28;20463;-67
2021/09/24 10:03:09;;;;;;;3.70;1.37;;;;;;;16.74;77.94;100886.19;5033642;28;20469;-69
2021/09/24 10:05:39;;;;;;;3.93;0.80;;;;;;;16.73;77.80;100879.09;5033617;28;20502;-68
2021/09/24 10:08:22;;;;;;;27.97;2.03;;;;;;;16.80;77.68;100873.88;5033898;28;20447;-68
2021/09/24 10:11:01;;;;;;;13.00;2.00;;;;;;;16.90;78.11;100869.94;5033466;28;20478;-67
2021/09/24 10:13:29;;;;;;;10.63;1.07;;;;;;;17.03;77.45;100876.25;5033412;28;20471;-68
2021/09/24 10:15:56;;;;;;;10.33;1.40;;;;;;;17.20;76.73;100883.50;5033082;28;20940;-68
2021/09/24 10:18:22;;;;;;;4.37;1.17;;;;;;;17.30;77.35;100872.91;5033018;28;20447;-67
2021/09/24 10:20:51;;;;;;;5.60;1.70;;;;;;;17.38;76.80;100876.69;5033252;28;20458;-67
2021/09/24 10:23:18;;;;;;;22.57;2.20;;;;;;;17.53;77.33;100877.94;5033216;28;20443;-68
2021/09/24 10:25:49;;;;;;;2.97;0.80;;;;;;;17.57;77.25;100868.72;5032973;28;20843;-68
2021/09/24 10:28:16;;;;;;;9.97;1.40;;;;;;;17.74;76.33;100872.41;5032992;28;20918;-69
2021/09/24 10:30:43;;;;;;;11.67;1.53;;;;;;;17.81;78.00;100851.53;5033193;28;20474;-67
2021/09/24 10:33:13;;;;;;;6.90;1.40;;;;;;;17.82;76.50;100858.59;5033116;28;20491;-68
2021/09/24 10:35:46;;;;;;;2.40;0.90;;;;;;;17.83;76.16;100860.19;5033156;28;20493;-68
2021/09/24 10:38:15;;;;;;;2.00;0.70;;;;;;;17.95;76.50;100853.13;5033159;28;20435;-68
2021/09/24 10:40:53;;;;;;;14.07;1.47;;;;;;;18.06;76.51;100862.44;5033066;28;20470;-68
2021/09/24 10:43:20;;;;;;;5.17;1.17;;;;;;;18.15;75.82;100860.41;5032731;28;20909;-69
2021/09/24 10:45:47;;;;;;;3.47;1.13;;;;;;;18.17;76.44;100863.59;5035277;28;20465;-68
2021/09/24 10:48:18;;;;;;;1.77;0.83;;;;;;;18.11;76.30;100863.03;5036886;28;20454;-67
2021/09/24 10:51:06;;;;;;;1.50;0.83;;;;;;;18.03;77.12;100863.94;5036842;28;20482;-68
2021/09/24 10:53:47;;;;;;;4.10;0.93;;;;;;;17.93;76.81;100845.25;5037245;28;20861;-68
2021/09/24 10:56:32;;;;;;;7.83;1.33;;;;;;;17.80;78.36;100852.66;5036759;28;20916;-68
2021/09/24 10:59:00;;;;;;;5.07;1.03;;;;;;;17.86;78.67;100851.28;5036969;28;20447;-68
2021/09/24 11:01:39;;;;;;;2.23;0.90;;;;;;;17.90;78.09;100845.91;5036876;28;20843;-68
2021/09/24 11:04:14;;;;;;;2.47;1.10;;;;;;;17.85;78.40;100852.44;5036916;28;20509;-67
2021/09/24 11:06:43;;;;;;;5.57;1.10;;;;;;;17.75;79.47;100847.44;5036544;28;20955;-68
2021/09/24 11:09:13;;;;;;;1.47;0.70;;;;;;;17.68;79.26;100847.16;5036771;28;20443;-68
2021/09/24 11:11:41;;;;;;;13.70;1.97;;;;;;;17.39;80.36;100848.94;5036675;28;20520;-67
2021/09/24 11:14:28;;;;;;;2.50;1.07;;;;;;;17.36;80.64;100852.38;5036324;28;21065;-67
2021/09/24 11:16:56;;;;;;;3.43;0.87;;;;;;;17.43;81.64;100853.75;5036685;28;20528;-67
2021/09/24 11:19:35;;;;;;;3.63;0.90;;;;;;;17.52;81.83;100855.25;5036246;28;20955;-66
2021/09/24 11:22:07;;;;;;;9.00;1.03;;;;;;;17.69;81.45;100853.44;5037020;28;20442;-69
2021/09/24 11:24:37;;;;;;;3.30;1.57;;;;;;;17.62;80.44;100851.28;5036336;28;20920;-68
2021/09/24 11:27:06;;;;;;;3.13;0.63;;;;;;;17.41;81.54;100851.38;5036521;28;20448;-67